sensor_id;sensor_type;location;lat;lon;timestamp;temperature;humidity
1415;DHT22;702;49.466;11.086;2023-04-25T00:01:32;8.70;83.00
1415;DHT22;702;49.466;11.086;2023-04-25T00:04:01;8.70;83.10
1415;DHT22;702;49.466;11.086;2023-04-25T00:06:29;8.70;83.00
1415;DHT22;702;49.466;11.086;2023-04-25T00:09:01;8.70;82.90
1415;DHT22;702;49.466;11.086;2023-04-25T00:11:29;8.70;82.80
1415;DHT22;702;49.466;11.086;2023-04-25T00:13:58;8.70;82.70
1415;DHT22;702;49.466;11.086;2023-04-25T00:16:28;8.80;82.40
1415;DHT22;702;49.466;11.086;2023-04-25T00:18:58;8.80;82.30
1415;DHT22;702;49.466;11.086;2023-04-25T00:21:27;8.80;81.90
1415;DHT22;702;49.466;11.086;2023-04-25T00:23:55;8.80;81.90
1415;DHT22;702;49.466;11.086;2023-04-25T00:26:22;8.80;81.90
1415;DHT22;702;49.466;11.086;2023-04-25T00:28:49;8.80;81.70
1415;DHT22;702;49.466;11.086;2023-04-25T00:31:18;8.90;81.60
1415;DHT22;702;49.466;11.086;2023-04-25T00:33:45;8.90;81.60
1415;DHT22;702;49.466;11.086;2023-04-25T00:36:13;8.90;81.70
1415;DHT22;702;49.466;11.086;2023-04-25T00:38:40;8.80;81.60
1415;DHT22;702;49.466;11.086;2023-04-25T00:41:09;8.90;81.60
1415;DHT22;702;49.466;11.086;2023-04-25T00:43:37;8.90;81.80
1415;DHT22;702;49.466;11.086;2023-04-25T00:46:04;8.90;81.90
1415;DHT22;702;49.466;11.086;2023-04-25T00:48:33;8.80;81.30
1415;DHT22;702;49.466;11.086;2023-04-25T00:51:02;8.80;81.50
1415;DHT22;702;49.466;11.086;2023-04-25T00:53:30;8.90;81.40
1415;DHT22;702;49.466;11.086;2023-04-25T00:55:59;8.90;81.50
1415;DHT22;702;49.466;11.086;2023-04-25T00:58:26;8.90;81.70
1415;DHT22;702;49.466;11.086;2023-04-25T01:00:53;8.90;81.50
1415;DHT22;702;49.466;11.086;2023-04-25T01:03:22;8.90;82.00
1415;DHT22;702;49.466;11.086;2023-04-25T01:05:53;8.90;81.70
1415;DHT22;702;49.466;11.086;2023-04-25T01:08:21;8.90;81.50
1415;DHT22;702;49.466;11.086;2023-04-25T01:10:52;8.90;81.70
1415;DHT22;702;49.466;11.086;2023-04-25T01:13:19;8.80;81.80
1415;DHT22;702;49.466;11.086;2023-04-25T01:15:47;8.80;81.80
1415;DHT22;702;49.466;11.086;2023-04-25T01:18:14;8.80;81.90
1415;DHT22;702;49.466;11.086;2023-04-25T01:20:42;8.80;82.00
1415;DHT22;702;49.466;11.086;2023-04-25T01:23:12;8.70;81.90
1415;DHT22;702;49.466;11.086;2023-04-25T01:25:40;8.70;81.70
1415;DHT22;702;49.466;11.086;2023-04-25T01:28:07;8.70;81.80
1415;DHT22;702;49.466;11.086;2023-04-25T01:30:35;8.70;81.70
1415;DHT22;702;49.466;11.086;2023-04-25T01:33:03;8.70;81.90
1415;DHT22;702;49.466;11.086;2023-04-25T01:35:31;8.70;82.10
1415;DHT22;702;49.466;11.086;2023-04-25T01:37:59;8.60;82.20
1415;DHT22;702;49.466;11.086;2023-04-25T01:40:28;8.60;82.60
1415;DHT22;702;49.466;11.086;2023-04-25T01:42:55;8.60;82.60
1415;DHT22;702;49.466;11.086;2023-04-25T01:45:22;8.60;82.60
1415;DHT22;702;49.466;11.086;2023-04-25T01:47:49;8.60;83.50
1415;DHT22;702;49.466;11.086;2023-04-25T01:50:18;8.60;82.80
1415;DHT22;702;49.466;11.086;2023-04-25T01:52:46;8.60;82.80
1415;DHT22;702;49.466;11.086;2023-04-25T01:55:13;8.60;82.80
1415;DHT22;702;49.466;11.086;2023-04-25T01:57:42;8.50;83.10
1415;DHT22;702;49.466;11.086;2023-04-25T02:00:10;8.60;83.10
1415;DHT22;702;49.466;11.086;2023-04-25T02:02:38;8.60;83.40
1415;DHT22;702;49.466;11.086;2023-04-25T02:05:07;8.60;83.50
1415;DHT22;702;49.466;11.086;2023-04-25T02:07:34;8.60;83.50
1415;DHT22;702;49.466;11.086;2023-04-25T02:10:02;8.60;83.20
1415;DHT22;702;49.466;11.086;2023-04-25T02:12:29;8.60;82.70
1415;DHT22;702;49.466;11.086;2023-04-25T02:14:59;8.70;82.90
1415;DHT22;702;49.466;11.086;2023-04-25T02:17:26;8.60;82.60
1415;DHT22;702;49.466;11.086;2023-04-25T02:19:53;8.60;82.80
1415;DHT22;702;49.466;11.086;2023-04-25T02:22:20;8.60;83.10
1415;DHT22;702;49.466;11.086;2023-04-25T02:24:48;8.60;83.00
1415;DHT22;702;49.466;11.086;2023-04-25T02:27:15;8.60;83.30
1415;DHT22;702;49.466;11.086;2023-04-25T02:29:42;8.50;83.20
1415;DHT22;702;49.466;11.086;2023-04-25T02:32:11;8.60;83.50
1415;DHT22;702;49.466;11.086;2023-04-25T02:34:38;8.50;83.30
1415;DHT22;702;49.466;11.086;2023-04-25T02:37:05;8.50;83.20
1415;DHT22;702;49.466;11.086;2023-04-25T02:39:33;8.40;83.50
1415;DHT22;702;49.466;11.086;2023-04-25T02:42:00;8.30;83.50
1415;DHT22;702;49.466;11.086;2023-04-25T02:44:28;8.40;84.20
1415;DHT22;702;49.466;11.086;2023-04-25T02:46:55;8.40;84.10
1415;DHT22;702;49.466;11.086;2023-04-25T02:49:24;8.30;84.60
1415;DHT22;702;49.466;11.086;2023-04-25T02:51:51;8.30;85.30
1415;DHT22;702;49.466;11.086;2023-04-25T02:54:18;8.30;85.30
1415;DHT22;702;49.466;11.086;2023-04-25T02:56:45;8.20;85.80
1415;DHT22;702;49.466;11.086;2023-04-25T02:59:13;8.20;86.30
1415;DHT22;702;49.466;11.086;2023-04-25T03:01:40;8.20;87.10
1415;DHT22;702;49.466;11.086;2023-04-25T03:04:07;8.20;86.80
1415;DHT22;702;49.466;11.086;2023-04-25T03:06:36;8.20;86.60
1415;DHT22;702;49.466;11.086;2023-04-25T03:09:03;8.20;86.70
1415;DHT22;702;49.466;11.086;2023-04-25T03:11:30;8.20;87.00
1415;DHT22;702;49.466;11.086;2023-04-25T03:13:58;8.30;87.20
1415;DHT22;702;49.466;11.086;2023-04-25T03:16:25;8.30;87.50
1415;DHT22;702;49.466;11.086;2023-04-25T03:18:53;8.30;87.50
1415;DHT22;702;49.466;11.086;2023-04-25T03:21:21;8.20;87.70
1415;DHT22;702;49.466;11.086;2023-04-25T03:23:49;8.20;87.50
1415;DHT22;702;49.466;11.086;2023-04-25T03:26:16;8.10;88.10
1415;DHT22;702;49.466;11.086;2023-04-25T03:28:44;8.10;88.70
1415;DHT22;702;49.466;11.086;2023-04-25T03:31:11;8.10;89.20
1415;DHT22;702;49.466;11.086;2023-04-25T03:33:38;8.10;88.30
1415;DHT22;702;49.466;11.086;2023-04-25T03:36:06;8.00;88.30
1415;DHT22;702;49.466;11.086;2023-04-25T03:38:35;8.10;87.90
1415;DHT22;702;49.466;11.086;2023-04-25T03:41:03;8.10;87.70
1415;DHT22;702;49.466;11.086;2023-04-25T03:43:31;8.00;88.00
1415;DHT22;702;49.466;11.086;2023-04-25T03:45:58;7.90;88.70
1415;DHT22;702;49.466;11.086;2023-04-25T03:48:25;7.90;89.20
1415;DHT22;702;49.466;11.086;2023-04-25T03:50:53;7.80;89.40
1415;DHT22;702;49.466;11.086;2023-04-25T03:53:20;7.80;89.40
1415;DHT22;702;49.466;11.086;2023-04-25T03:55:48;7.80;89.80
1415;DHT22;702;49.466;11.086;2023-04-25T03:58:16;7.80;90.00
1415;DHT22;702;49.466;11.086;2023-04-25T04:00:43;7.80;90.20
1415;DHT22;702;49.466;11.086;2023-04-25T04:03:11;7.90;90.30
1415;DHT22;702;49.466;11.086;2023-04-25T04:05:38;8.00;90.00
1415;DHT22;702;49.466;11.086;2023-04-25T04:08:06;8.00;88.90
1415;DHT22;702;49.466;11.086;2023-04-25T04:10:33;8.00;88.60
1415;DHT22;702;49.466;11.086;2023-04-25T04:13:00;8.10;88.30
1415;DHT22;702;49.466;11.086;2023-04-25T04:15:29;8.20;87.80
1415;DHT22;702;49.466;11.086;2023-04-25T04:17:58;8.30;87.30
1415;DHT22;702;49.466;11.086;2023-04-25T04:20:28;8.30;87.50
1415;DHT22;702;49.466;11.086;2023-04-25T04:22:56;8.20;87.50
1415;DHT22;702;49.466;11.086;2023-04-25T04:25:23;8.30;86.60
1415;DHT22;702;49.466;11.086;2023-04-25T04:27:52;8.30;86.00
1415;DHT22;702;49.466;11.086;2023-04-25T04:30:21;8.30;86.10
1415;DHT22;702;49.466;11.086;2023-04-25T04:32:53;8.30;86.30
1415;DHT22;702;49.466;11.086;2023-04-25T04:35:20;8.30;86.40
1415;DHT22;702;49.466;11.086;2023-04-25T04:37:47;8.30;86.70
1415;DHT22;702;49.466;11.086;2023-04-25T04:40:15;8.30;87.60
1415;DHT22;702;49.466;11.086;2023-04-25T04:42:43;8.30;88.30
1415;DHT22;702;49.466;11.086;2023-04-25T04:45:11;8.40;88.90
1415;DHT22;702;49.466;11.086;2023-04-25T04:47:39;8.40;87.90
1415;DHT22;702;49.466;11.086;2023-04-25T04:50:08;8.30;87.70
1415;DHT22;702;49.466;11.086;2023-04-25T04:52:37;8.30;88.20
1415;DHT22;702;49.466;11.086;2023-04-25T04:55:06;8.20;89.50
1415;DHT22;702;49.466;11.086;2023-04-25T04:57:33;8.30;89.90
1415;DHT22;702;49.466;11.086;2023-04-25T05:00:01;8.30;90.30
1415;DHT22;702;49.466;11.086;2023-04-25T05:02:36;8.30;89.90
1415;DHT22;702;49.466;11.086;2023-04-25T05:05:04;8.30;89.60
1415;DHT22;702;49.466;11.086;2023-04-25T05:07:34;8.30;88.40
1415;DHT22;702;49.466;11.086;2023-04-25T05:10:02;8.40;89.40
1415;DHT22;702;49.466;11.086;2023-04-25T05:12:29;8.40;88.10
1415;DHT22;702;49.466;11.086;2023-04-25T05:14:57;8.40;87.40
1415;DHT22;702;49.466;11.086;2023-04-25T05:17:27;8.50;87.30
1415;DHT22;702;49.466;11.086;2023-04-25T05:19:54;8.40;87.30
1415;DHT22;702;49.466;11.086;2023-04-25T05:22:22;8.40;87.90
1415;DHT22;702;49.466;11.086;2023-04-25T05:24:50;8.40;87.10
1415;DHT22;702;49.466;11.086;2023-04-25T05:27:18;8.40;86.60
1415;DHT22;702;49.466;11.086;2023-04-25T05:29:47;8.40;87.50
1415;DHT22;702;49.466;11.086;2023-04-25T05:32:14;8.50;87.40
1415;DHT22;702;49.466;11.086;2023-04-25T05:34:41;8.50;86.30
1415;DHT22;702;49.466;11.086;2023-04-25T05:37:08;8.60;85.20
1415;DHT22;702;49.466;11.086;2023-04-25T05:39:37;8.50;84.60
1415;DHT22;702;49.466;11.086;2023-04-25T05:42:04;8.60;85.40
1415;DHT22;702;49.466;11.086;2023-04-25T05:44:31;8.70;85.30
1415;DHT22;702;49.466;11.086;2023-04-25T05:46:58;8.90;84.60
1415;DHT22;702;49.466;11.086;2023-04-25T05:49:26;8.90;83.50
1415;DHT22;702;49.466;11.086;2023-04-25T05:51:53;8.90;83.30
1415;DHT22;702;49.466;11.086;2023-04-25T05:54:20;8.90;83.50
1415;DHT22;702;49.466;11.086;2023-04-25T05:56:49;8.80;83.50
1415;DHT22;702;49.466;11.086;2023-04-25T05:59:16;8.80;84.00
1415;DHT22;702;49.466;11.086;2023-04-25T06:01:43;8.60;83.70
1415;DHT22;702;49.466;11.086;2023-04-25T06:04:11;8.70;84.60
1415;DHT22;702;49.466;11.086;2023-04-25T06:06:38;8.50;84.20
1415;DHT22;702;49.466;11.086;2023-04-25T06:09:05;8.40;84.80
1415;DHT22;702;49.466;11.086;2023-04-25T06:11:32;8.30;86.10
1415;DHT22;702;49.466;11.086;2023-04-25T06:14:01;8.20;87.20
1415;DHT22;702;49.466;11.086;2023-04-25T06:16:28;8.30;88.00
1415;DHT22;702;49.466;11.086;2023-04-25T06:18:55;8.30;88.30
1415;DHT22;702;49.466;11.086;2023-04-25T06:21:23;8.40;88.80
1415;DHT22;702;49.466;11.086;2023-04-25T06:23:50;8.30;87.50
1415;DHT22;702;49.466;11.086;2023-04-25T06:26:17;8.30;89.60
1415;DHT22;702;49.466;11.086;2023-04-25T06:28:44;8.30;90.00
1415;DHT22;702;49.466;11.086;2023-04-25T06:31:13;8.20;90.00
1415;DHT22;702;49.466;11.086;2023-04-25T06:33:40;8.20;90.70
1415;DHT22;702;49.466;11.086;2023-04-25T06:36:08;8.10;91.80
1415;DHT22;702;49.466;11.086;2023-04-25T06:38:36;8.20;93.10
1415;DHT22;702;49.466;11.086;2023-04-25T06:41:03;8.10;92.30
1415;DHT22;702;49.466;11.086;2023-04-25T06:43:31;8.10;91.70
1415;DHT22;702;49.466;11.086;2023-04-25T06:45:59;8.20;92.60
1415;DHT22;702;49.466;11.086;2023-04-25T06:48:28;8.20;90.40
1415;DHT22;702;49.466;11.086;2023-04-25T06:50:55;8.40;90.70
1415;DHT22;702;49.466;11.086;2023-04-25T06:53:23;8.50;90.60
1415;DHT22;702;49.466;11.086;2023-04-25T06:55:50;8.60;90.10
1415;DHT22;702;49.466;11.086;2023-04-25T06:58:17;8.50;88.80
1415;DHT22;702;49.466;11.086;2023-04-25T07:00:44;8.70;88.70
1415;DHT22;702;49.466;11.086;2023-04-25T07:03:12;8.90;88.20
1415;DHT22;702;49.466;11.086;2023-04-25T07:05:40;9.20;85.70
1415;DHT22;702;49.466;11.086;2023-04-25T07:08:07;9.40;83.80
1415;DHT22;702;49.466;11.086;2023-04-25T07:10:34;9.30;83.80
1415;DHT22;702;49.466;11.086;2023-04-25T07:13:02;9.60;82.10
1415;DHT22;702;49.466;11.086;2023-04-25T07:15:29;9.50;81.70
1415;DHT22;702;49.466;11.086;2023-04-25T07:17:56;9.40;82.70
1415;DHT22;702;49.466;11.086;2023-04-25T07:20:24;9.10;82.80
1415;DHT22;702;49.466;11.086;2023-04-25T07:22:54;8.90;83.10
1415;DHT22;702;49.466;11.086;2023-04-25T07:25:21;8.90;84.30
1415;DHT22;702;49.466;11.086;2023-04-25T07:27:49;8.60;81.60
1415;DHT22;702;49.466;11.086;2023-04-25T07:30:16;8.40;82.30
1415;DHT22;702;49.466;11.086;2023-04-25T07:32:43;8.30;81.50
1415;DHT22;702;49.466;11.086;2023-04-25T07:35:11;8.00;81.10
1415;DHT22;702;49.466;11.086;2023-04-25T07:37:38;7.50;83.50
1415;DHT22;702;49.466;11.086;2023-04-25T07:40:08;7.40;88.20
1415;DHT22;702;49.466;11.086;2023-04-25T07:42:35;7.30;90.40
1415;DHT22;702;49.466;11.086;2023-04-25T07:45:03;7.30;91.30
1415;DHT22;702;49.466;11.086;2023-04-25T07:47:30;7.30;89.60
1415;DHT22;702;49.466;11.086;2023-04-25T07:49:57;7.10;88.60
1415;DHT22;702;49.466;11.086;2023-04-25T07:52:26;7.00;88.90
1415;DHT22;702;49.466;11.086;2023-04-25T07:54:53;7.10;90.70
1415;DHT22;702;49.466;11.086;2023-04-25T07:57:22;7.30;89.20
1415;DHT22;702;49.466;11.086;2023-04-25T07:59:49;7.40;88.60
1415;DHT22;702;49.466;11.086;2023-04-25T08:02:17;7.70;89.00
1415;DHT22;702;49.466;11.086;2023-04-25T08:04:44;7.90;86.10
1415;DHT22;702;49.466;11.086;2023-04-25T08:07:11;7.80;85.80
1415;DHT22;702;49.466;11.086;2023-04-25T08:09:39;7.70;85.60
1415;DHT22;702;49.466;11.086;2023-04-25T08:12:06;7.40;84.00
1415;DHT22;702;49.466;11.086;2023-04-25T08:14:35;7.60;86.50
1415;DHT22;702;49.466;11.086;2023-04-25T08:17:02;7.60;83.20
1415;DHT22;702;49.466;11.086;2023-04-25T08:19:31;7.90;84.90
1415;DHT22;702;49.466;11.086;2023-04-25T08:21:58;8.10;83.00
1415;DHT22;702;49.466;11.086;2023-04-25T08:24:25;8.40;82.10
1415;DHT22;702;49.466;11.086;2023-04-25T08:26:52;8.50;81.50
1415;DHT22;702;49.466;11.086;2023-04-25T08:29:20;8.70;81.10
1415;DHT22;702;49.466;11.086;2023-04-25T08:31:50;9.10;80.50
1415;DHT22;702;49.466;11.086;2023-04-25T08:34:18;9.30;80.30
1415;DHT22;702;49.466;11.086;2023-04-25T08:36:46;9.80;78.40
1415;DHT22;702;49.466;11.086;2023-04-25T08:39:13;10.20;75.50
1415;DHT22;702;49.466;11.086;2023-04-25T08:41:41;10.60;73.20
1415;DHT22;702;49.466;11.086;2023-04-25T08:44:10;10.80;72.80
1415;DHT22;702;49.466;11.086;2023-04-25T08:46:38;11.00;71.70
1415;DHT22;702;49.466;11.086;2023-04-25T08:49:08;11.10;70.10
1415;DHT22;702;49.466;11.086;2023-04-25T08:51:42;11.40;71.20
1415;DHT22;702;49.466;11.086;2023-04-25T08:54:13;11.50;70.70
1415;DHT22;702;49.466;11.086;2023-04-25T08:56:44;11.70;70.20
1415;DHT22;702;49.466;11.086;2023-04-25T08:59:13;12.00;70.90
1415;DHT22;702;49.466;11.086;2023-04-25T09:01:40;11.80;68.30
1415;DHT22;702;49.466;11.086;2023-04-25T09:04:09;11.70;69.60
1415;DHT22;702;49.466;11.086;2023-04-25T09:06:38;11.70;70.50
1415;DHT22;702;49.466;11.086;2023-04-25T09:09:06;11.50;70.90
1415;DHT22;702;49.466;11.086;2023-04-25T09:11:35;11.10;70.90
1415;DHT22;702;49.466;11.086;2023-04-25T09:14:14;10.60;72.10
1415;DHT22;702;49.466;11.086;2023-04-25T09:17:01;10.30;73.90
1415;DHT22;702;49.466;11.086;2023-04-25T09:19:33;10.20;74.50
1415;DHT22;702;49.466;11.086;2023-04-25T09:22:02;10.20;74.40
1415;DHT22;702;49.466;11.086;2023-04-25T09:24:35;10.30;75.20
1415;DHT22;702;49.466;11.086;2023-04-25T09:27:04;10.30;75.70
1415;DHT22;702;49.466;11.086;2023-04-25T09:29:32;9.90;76.10
1415;DHT22;702;49.466;11.086;2023-04-25T09:32:18;9.60;75.40
1415;DHT22;702;49.466;11.086;2023-04-25T09:34:49;9.50;75.30
1415;DHT22;702;49.466;11.086;2023-04-25T09:37:18;9.60;77.20
1415;DHT22;702;49.466;11.086;2023-04-25T09:39:47;9.90;77.80
1415;DHT22;702;49.466;11.086;2023-04-25T09:42:16;10.20;76.50
1415;DHT22;702;49.466;11.086;2023-04-25T09:44:44;10.40;74.40
1415;DHT22;702;49.466;11.086;2023-04-25T09:47:13;10.40;72.80
1415;DHT22;702;49.466;11.086;2023-04-25T09:49:42;10.50;72.60
1415;DHT22;702;49.466;11.086;2023-04-25T09:52:15;10.60;70.10
1415;DHT22;702;49.466;11.086;2023-04-25T09:54:45;10.40;68.40
1415;DHT22;702;49.466;11.086;2023-04-25T09:57:14;10.40;68.30
1415;DHT22;702;49.466;11.086;2023-04-25T09:59:46;10.60;70.30
1415;DHT22;702;49.466;11.086;2023-04-25T10:02:16;11.00;68.60
1415;DHT22;702;49.466;11.086;2023-04-25T10:04:47;11.30;66.80
1415;DHT22;702;49.466;11.086;2023-04-25T10:07:20;11.50;65.20
1415;DHT22;702;49.466;11.086;2023-04-25T10:09:49;11.90;65.50
1415;DHT22;702;49.466;11.086;2023-04-25T10:12:17;11.70;65.10
1415;DHT22;702;49.466;11.086;2023-04-25T10:14:44;11.80;65.20
1415;DHT22;702;49.466;11.086;2023-04-25T10:17:13;11.80;65.50
1415;DHT22;702;49.466;11.086;2023-04-25T10:19:41;11.80;66.80
1415;DHT22;702;49.466;11.086;2023-04-25T10:22:13;11.90;65.60
1415;DHT22;702;49.466;11.086;2023-04-25T10:24:43;11.80;61.60
1415;DHT22;702;49.466;11.086;2023-04-25T10:27:12;11.70;59.80
1415;DHT22;702;49.466;11.086;2023-04-25T10:29:41;11.40;58.50
1415;DHT22;702;49.466;11.086;2023-04-25T10:32:09;11.30;58.50
1415;DHT22;702;49.466;11.086;2023-04-25T10:34:41;11.30;57.80
1415;DHT22;702;49.466;11.086;2023-04-25T10:37:09;11.20;56.40
1415;DHT22;702;49.466;11.086;2023-04-25T10:39:39;11.40;56.10
1415;DHT22;702;49.466;11.086;2023-04-25T10:42:09;11.70;55.20
1415;DHT22;702;49.466;11.086;2023-04-25T10:44:37;12.00;55.20
1415;DHT22;702;49.466;11.086;2023-04-25T10:47:07;12.10;55.20
1415;DHT22;702;49.466;11.086;2023-04-25T10:49:37;12.00;55.20
1415;DHT22;702;49.466;11.086;2023-04-25T10:52:18;11.90;55.60
1415;DHT22;702;49.466;11.086;2023-04-25T10:54:53;11.80;55.40
1415;DHT22;702;49.466;11.086;2023-04-25T10:57:30;11.70;55.40
1415;DHT22;702;49.466;11.086;2023-04-25T11:00:06;11.70;54.10
1415;DHT22;702;49.466;11.086;2023-04-25T11:02:41;12.10;53.00
1415;DHT22;702;49.466;11.086;2023-04-25T11:05:11;12.60;53.20
1415;DHT22;702;49.466;11.086;2023-04-25T11:07:50;12.60;51.40
1415;DHT22;702;49.466;11.086;2023-04-25T11:10:18;12.80;51.90
1415;DHT22;702;49.466;11.086;2023-04-25T11:12:47;12.90;51.00
1415;DHT22;702;49.466;11.086;2023-04-25T11:15:17;12.70;51.20
1415;DHT22;702;49.466;11.086;2023-04-25T11:17:44;12.60;51.50
1415;DHT22;702;49.466;11.086;2023-04-25T11:20:13;12.90;51.40
1415;DHT22;702;49.466;11.086;2023-04-25T11:22:41;12.80;51.80
1415;DHT22;702;49.466;11.086;2023-04-25T11:25:10;12.80;52.10
1415;DHT22;702;49.466;11.086;2023-04-25T11:27:39;12.80;51.50
1415;DHT22;702;49.466;11.086;2023-04-25T11:30:19;12.70;51.50
1415;DHT22;702;49.466;11.086;2023-04-25T11:32:47;12.50;51.90
1415;DHT22;702;49.466;11.086;2023-04-25T11:35:14;12.50;52.00
1415;DHT22;702;49.466;11.086;2023-04-25T11:37:42;12.50;51.50
1415;DHT22;702;49.466;11.086;2023-04-25T11:40:11;12.50;51.90
1415;DHT22;702;49.466;11.086;2023-04-25T11:42:39;12.70;53.10
1415;DHT22;702;49.466;11.086;2023-04-25T11:45:11;12.70;53.30
1415;DHT22;702;49.466;11.086;2023-04-25T11:47:40;12.40;53.40
1415;DHT22;702;49.466;11.086;2023-04-25T11:50:08;12.30;53.60
1415;DHT22;702;49.466;11.086;2023-04-25T11:52:37;12.40;52.80
1415;DHT22;702;49.466;11.086;2023-04-25T11:55:07;12.60;52.00
1415;DHT22;702;49.466;11.086;2023-04-25T11:57:40;12.90;49.40
1415;DHT22;702;49.466;11.086;2023-04-25T12:00:11;13.20;49.10
1415;DHT22;702;49.466;11.086;2023-04-25T12:02:44;13.20;48.30
1415;DHT22;702;49.466;11.086;2023-04-25T12:05:14;13.20;47.90
1415;DHT22;702;49.466;11.086;2023-04-25T12:07:42;13.10;48.50
1415;DHT22;702;49.466;11.086;2023-04-25T12:10:11;13.40;48.50
1415;DHT22;702;49.466;11.086;2023-04-25T12:12:42;13.40;48.50
1415;DHT22;702;49.466;11.086;2023-04-25T12:15:13;13.00;48.10
1415;DHT22;702;49.466;11.086;2023-04-25T12:17:45;13.40;49.10
1415;DHT22;702;49.466;11.086;2023-04-25T12:20:14;13.70;48.40
1415;DHT22;702;49.466;11.086;2023-04-25T12:22:44;13.10;48.80
1415;DHT22;702;49.466;11.086;2023-04-25T12:25:12;13.30;49.10
1415;DHT22;702;49.466;11.086;2023-04-25T12:27:41;13.30;48.80
1415;DHT22;702;49.466;11.086;2023-04-25T12:30:11;13.10;48.70
1415;DHT22;702;49.466;11.086;2023-04-25T12:32:39;13.00;48.90
1415;DHT22;702;49.466;11.086;2023-04-25T12:35:07;13.10;49.00
1415;DHT22;702;49.466;11.086;2023-04-25T12:37:35;12.90;48.70
1415;DHT22;702;49.466;11.086;2023-04-25T12:40:02;12.90;48.50
1415;DHT22;702;49.466;11.086;2023-04-25T12:42:32;13.00;49.10
1415;DHT22;702;49.466;11.086;2023-04-25T12:44:59;12.90;48.50
1415;DHT22;702;49.466;11.086;2023-04-25T12:47:28;12.50;48.80
1415;DHT22;702;49.466;11.086;2023-04-25T12:49:55;12.20;49.30
1415;DHT22;702;49.466;11.086;2023-04-25T12:52:23;12.40;49.90
1415;DHT22;702;49.466;11.086;2023-04-25T12:54:50;12.60;49.90
1415;DHT22;702;49.466;11.086;2023-04-25T12:57:17;12.50;49.20
1415;DHT22;702;49.466;11.086;2023-04-25T12:59:45;12.50;49.20
1415;DHT22;702;49.466;11.086;2023-04-25T13:02:13;12.80;49.30
1415;DHT22;702;49.466;11.086;2023-04-25T13:04:42;13.10;48.70
1415;DHT22;702;49.466;11.086;2023-04-25T13:07:09;13.10;48.40
1415;DHT22;702;49.466;11.086;2023-04-25T13:09:36;13.10;47.70
1415;DHT22;702;49.466;11.086;2023-04-25T13:12:04;13.10;48.10
1415;DHT22;702;49.466;11.086;2023-04-25T13:14:31;13.20;48.30
1415;DHT22;702;49.466;11.086;2023-04-25T13:16:59;13.50;48.20
1415;DHT22;702;49.466;11.086;2023-04-25T13:19:26;13.60;48.30
1415;DHT22;702;49.466;11.086;2023-04-25T13:21:54;13.70;48.30
1415;DHT22;702;49.466;11.086;2023-04-25T13:24:22;13.60;48.40
1415;DHT22;702;49.466;11.086;2023-04-25T13:26:49;13.50;48.50
1415;DHT22;702;49.466;11.086;2023-04-25T13:29:16;13.60;48.90
1415;DHT22;702;49.466;11.086;2023-04-25T13:31:43;13.60;48.70
1415;DHT22;702;49.466;11.086;2023-04-25T13:34:11;13.80;48.20
1415;DHT22;702;49.466;11.086;2023-04-25T13:36:39;13.70;47.50
1415;DHT22;702;49.466;11.086;2023-04-25T13:39:07;13.50;47.80
1415;DHT22;702;49.466;11.086;2023-04-25T13:41:34;13.00;48.30
1415;DHT22;702;49.466;11.086;2023-04-25T13:44:02;12.70;49.00
1415;DHT22;702;49.466;11.086;2023-04-25T13:46:29;12.70;49.30
1415;DHT22;702;49.466;11.086;2023-04-25T13:48:57;12.50;49.90
1415;DHT22;702;49.466;11.086;2023-04-25T13:51:24;12.30;49.30
1415;DHT22;702;49.466;11.086;2023-04-25T13:53:52;12.00;49.30
1415;DHT22;702;49.466;11.086;2023-04-25T13:56:21;11.90;49.40
1415;DHT22;702;49.466;11.086;2023-04-25T13:58:48;11.80;49.60
1415;DHT22;702;49.466;11.086;2023-04-25T14:01:17;11.60;49.70
1415;DHT22;702;49.466;11.086;2023-04-25T14:03:45;11.50;49.50
1415;DHT22;702;49.466;11.086;2023-04-25T14:06:13;11.30;49.40
1415;DHT22;702;49.466;11.086;2023-04-25T14:08:46;11.30;49.50
1415;DHT22;702;49.466;11.086;2023-04-25T14:11:14;11.40;49.70
1415;DHT22;702;49.466;11.086;2023-04-25T14:13:45;11.60;49.70
1415;DHT22;702;49.466;11.086;2023-04-25T14:16:13;11.60;49.90
1415;DHT22;702;49.466;11.086;2023-04-25T14:18:40;11.80;50.00
1415;DHT22;702;49.466;11.086;2023-04-25T14:21:09;11.80;49.90
1415;DHT22;702;49.466;11.086;2023-04-25T14:23:36;11.90;50.20
1415;DHT22;702;49.466;11.086;2023-04-25T14:26:04;11.90;50.30
1415;DHT22;702;49.466;11.086;2023-04-25T14:28:31;12.00;50.10
1415;DHT22;702;49.466;11.086;2023-04-25T14:31:00;11.80;49.90
1415;DHT22;702;49.466;11.086;2023-04-25T14:33:27;11.50;50.00
1415;DHT22;702;49.466;11.086;2023-04-25T14:35:54;11.30;50.40
1415;DHT22;702;49.466;11.086;2023-04-25T14:38:21;11.00;51.00
1415;DHT22;702;49.466;11.086;2023-04-25T14:40:51;10.90;51.30
1415;DHT22;702;49.466;11.086;2023-04-25T14:43:19;10.90;51.50
1415;DHT22;702;49.466;11.086;2023-04-25T14:45:47;10.80;51.60
1415;DHT22;702;49.466;11.086;2023-04-25T14:48:15;10.70;51.80
1415;DHT22;702;49.466;11.086;2023-04-25T14:50:45;10.80;52.10
1415;DHT22;702;49.466;11.086;2023-04-25T14:53:12;10.80;52.00
1415;DHT22;702;49.466;11.086;2023-04-25T14:55:40;10.80;52.30
1415;DHT22;702;49.466;11.086;2023-04-25T14:58:09;10.70;52.20
1415;DHT22;702;49.466;11.086;2023-04-25T15:00:36;10.70;52.50
1415;DHT22;702;49.466;11.086;2023-04-25T15:03:04;10.70;52.70
1415;DHT22;702;49.466;11.086;2023-04-25T15:05:34;10.80;52.50
1415;DHT22;702;49.466;11.086;2023-04-25T15:08:02;10.90;52.00
1415;DHT22;702;49.466;11.086;2023-04-25T15:10:29;11.00;51.80
1415;DHT22;702;49.466;11.086;2023-04-25T15:12:56;11.00;51.50
1415;DHT22;702;49.466;11.086;2023-04-25T15:15:24;11.00;51.00
1415;DHT22;702;49.466;11.086;2023-04-25T15:17:52;11.10;51.50
1415;DHT22;702;49.466;11.086;2023-04-25T15:20:21;11.10;51.80
1415;DHT22;702;49.466;11.086;2023-04-25T15:22:49;11.00;51.80
1415;DHT22;702;49.466;11.086;2023-04-25T15:25:17;11.00;51.70
1415;DHT22;702;49.466;11.086;2023-04-25T15:27:44;10.90;52.00
1415;DHT22;702;49.466;11.086;2023-04-25T15:30:15;10.90;52.30
1415;DHT22;702;49.466;11.086;2023-04-25T15:32:43;10.80;52.10
1415;DHT22;702;49.466;11.086;2023-04-25T15:35:11;10.70;52.20
1415;DHT22;702;49.466;11.086;2023-04-25T15:37:39;10.70;51.80
1415;DHT22;702;49.466;11.086;2023-04-25T15:40:10;10.60;52.50
1415;DHT22;702;49.466;11.086;2023-04-25T15:42:38;10.50;53.00
1415;DHT22;702;49.466;11.086;2023-04-25T15:45:09;10.60;53.40
1415;DHT22;702;49.466;11.086;2023-04-25T15:47:37;10.70;52.70
1415;DHT22;702;49.466;11.086;2023-04-25T15:50:06;10.80;52.80
1415;DHT22;702;49.466;11.086;2023-04-25T15:52:36;10.90;52.00
1415;DHT22;702;49.466;11.086;2023-04-25T15:55:04;11.20;51.90
1415;DHT22;702;49.466;11.086;2023-04-25T15:57:34;11.20;51.50
1415;DHT22;702;49.466;11.086;2023-04-25T16:00:03;11.00;51.90
1415;DHT22;702;49.466;11.086;2023-04-25T16:02:33;10.90;52.00
1415;DHT22;702;49.466;11.086;2023-04-25T16:05:00;10.80;52.20
1415;DHT22;702;49.466;11.086;2023-04-25T16:07:28;10.90;52.70
1415;DHT22;702;49.466;11.086;2023-04-25T16:09:55;10.80;52.20
1415;DHT22;702;49.466;11.086;2023-04-25T16:12:22;10.70;52.50
1415;DHT22;702;49.466;11.086;2023-04-25T16:14:51;10.70;52.70
1415;DHT22;702;49.466;11.086;2023-04-25T16:17:18;10.70;52.80